Tiempo atmosférico en la estación meteorológica de Alpandeire, Málaga (680 m.)



Fecha
DESCASC
Temp. máxima en grados centígrados (hora)
DESCASC
Temp. mínima en grados centígrados (hora)
DESCASC
Temp. media en grados centígrados
DESCASC
Racha de viento máxima en m/sg (hora)
DESCASC
Velocidad máxima media en intervalos de 10 minutos(hora)
DESCASC
Precipitaciones diarias en mm
DESCASC
Precipitaciones de 00:00 a 06:00 en mm
DESCASC
Precipitaciones de 06:00 a 12:00 en mm
DESCASC
Precipitaciones de 12:00 a 18:00 en mm
DESCASC
Precipitaciones de 18:00 a 24:00 en mm
DESCASC
08-12-2019 18.2 (15:00) 6.5 (06:50) 12.4 8.33 (18:20) 4.17 (18:10) 0 0 0 0 0
07-12-2019 17.6 (15:10) 8.9 (23:40) 13.3 6.94 (00:20) 3.33 (00:20) 0 0 0 0 0
06-12-2019 16.3 (15:20) 8.7 (22:10) 12.5 6.67 (12:20) 3.33 (11:30) 0 0 0 0 0
05-12-2019 14.7 (13:40) 5.4 (00:00) 10 8.33 (21:40) 3.61 (20:20) 0 0 0 0 0
04-12-2019 13.7 (14:00) 5.4 (00:00) 9.5 7.5 (14:10) 4.17 (14:00) 0 0 0 0 0
03-12-2019 13.6 (16:20) 8.4 (00:00) 11 4.72 (18:50) 1.94 (18:50) 3.2 3.2 0 0 0
02-12-2019 10.5 (14:10) 7.2 (00:00) 8.8 7.22 (13:10) 3.89 (15:20) 8.8 0 3.8 2.6 2.4
01-12-2019 14.4 (12:40) 9.2 (00:00) 11.8 10 (05:40) 4.17 (12:50) 5 0.2 0 3.8 1
30-11-2019 20.6 (15:00) 10.4 (00:00) 15.5 7.78 (23:00) 3.06 (23:10) 0 0 0 0 0
29-11-2019 21.5 (15:20) 9 (00:00) 15.3 6.67 (16:50) 3.89 (14:30) 0 0 0 0 0
28-11-2019 17.9 (15:20) 8.9 (00:00) 13.4 8.89 (03:30) 4.72 (13:40) 0 0 0 0 0
27-11-2019 16.6 (16:40) 10.9 (00:00) 13.8 9.72 (15:40) 3.89 (15:40) 1.2 1 0.2 0 0
26-11-2019 18.6 (14:40) 11.5 (00:00) 15.1 10 (08:10) 5.28 (08:10) 0.2 0.2 0 0 0
25-11-2019 15.1 (14:20) 9.1 (00:00) 12.1 8.06 (00:30) 4.44 (00:10) 0.4 0 0 0 0.4
24-11-2019 14 (15:00) 6.4 (00:00) 10.2 11.67 (22:50) 4.72 (22:10) 0 0 0 0 0
23-11-2019 12.2 (14:50) 8.8 (00:00) 10.5 16.11 (04:20) 7.22 (04:30) 1.4 0 1.4 0 0
22-11-2019 14.7 (19:40) 11 (00:00) 12.8 17.5 (19:40) 9.17 (17:10) 66.6 11.4 21.8 16 17.4
21-11-2019 11.9 (14:40) 8.6 (00:00) 10.3 5.28 (15:30) 2.5 (15:30) 30 9.4 7.2 11.8 1.6
20-11-2019 8.9 (15:00) 4.6 (00:00) 6.7 5.83 (15:50) 2.5 (17:40) 5 0 2.8 2 0.2
19-11-2019 15 (15:00) 4.7 (00:00) 9.8 5.28 (14:50) 3.06 (15:20) 0 0 0 0 0
18-11-2019 12 (15:30) 6 (00:00) 9 15.56 (02:40) 7.22 (09:00) 1.6 1.4 0.2 0 0
17-11-2019 11.5 (22:30) 4.4 (00:00) 8 13.33 (21:40) 7.22 (23:00) 2.8 0 0 2.4 0.4
16-11-2019 12.1 (16:00) 2.1 (00:00) 7.1 11.11 (20:20) 5 (20:20) 0 0 0 0 0
15-11-2019 10 (15:00) 5.1 (00:00) 7.5 14.17 (03:10) 6.11 (15:20) 0 0 0 0 0
14-11-2019 12.2 (03:10) 7.7 (00:00) 9.9 15 (11:40) 6.67 (11:40) 2.4 0 0 2.4 0
13-11-2019 15 (17:40) 9.7 (00:00) 12.3 10.28 (03:40) 5 (09:00) 0.2 0 0 0.2 0
12-11-2019 16.2 (15:10) 9.7 (00:00) 13 10.28 (16:50) 5 (16:50) 0 0 0 0 0
11-11-2019 14.4 (14:00) 8.4 (07:00) 11.4 9.72 (12:30) 4.44 (12:30) 1.2 0.4 0.4 0.2 0.2
10-11-2019 13.3 (15:40) 8.8 (00:00) 11.1 20 (08:20) 11.11 (09:00) 0.4 0.2 0.2 0 0

Gráficas

Temp. máximas Temp. mínimas Temp. medias Precipitaciones Rachas de viento máximas Velocidades máximas media en intervalos de 10 minutos

Datos horarios

Fecha y hora oficial Temperatura (ºC) Velocidad del viento (km/h) Dirección del viento Racha (km/h) Dirección de racha Precipitación (mm) Presión (hPa) Tendencia (hPa) Humedad (%)
2019-12-09 23:00:00 10.6 0 Calma 5 Nordeste 0 -- -- 65
2019-12-09 22:00:00 10.2 2 Nordeste 4 Este 0 -- -- 77
2019-12-09 21:00:00 10.7 0 Calma 5 Este 0 -- -- 83
2019-12-09 20:00:00 10.8 3 Sudeste 6 Este 0 -- -- 82
2019-12-09 19:00:00 12.3 3 Sudeste 6 Este 0 -- -- 77
2019-12-09 18:00:00 15.4 5 Sudeste 9 Sur 0 -- -- 68
2019-12-09 17:00:00 18.1 4 Sudoeste 12 Oeste 0 -- -- 61
2019-12-09 16:00:00 17.4 4 Sur 10 Oeste 0 -- -- 65
2019-12-09 15:00:00 17.4 4 Sur 11 Noroeste 0 -- -- 64
2019-12-09 14:00:00 17.2 6 Oeste 14 Noroeste 0 -- -- 65
2019-12-09 13:00:00 16.8 9 Oeste 17 Oeste 0 -- -- 70
2019-12-09 12:00:00 15.8 5 Sudoeste 28 Este 0 -- -- 73
2019-12-09 11:00:00 14.1 11 Sudeste 39 Este 0 -- -- 77
2019-12-09 10:00:00 12.2 17 Nordeste 32 Nordeste 0 -- -- 85
2019-12-09 09:00:00 11.7 5 Este 12 Este 0 -- -- 87
2019-12-09 08:00:00 11.8 5 Este 16 Sudeste 0 -- -- 87
2019-12-09 07:00:00 11.7 3 Nordeste 13 Este 0 -- -- 87
2019-12-09 06:00:00 11.8 8 Este 26 Este 0 -- -- 83
2019-12-09 05:00:00 11.6 5 Sudeste 15 Sur 0 -- -- 81
2019-12-09 04:00:00 12.1 6 Sudeste 22 Norte 0 -- -- 75
2019-12-09 03:00:00 12.2 6 Sudeste 23 Nordeste 0 -- -- 75
2019-12-09 02:00:00 11.2 5 Oeste 22 Nordeste 0 -- -- 72
2019-12-09 01:00:00 12.2 8 Norte 23 Norte 0 -- -- 70
2019-12-09 00:00:00 12.2 12 Nordeste 24 Nordeste 0 -- -- 63
2019-12-08 23:00:00 11.9 3 Noroeste 15 Norte 0 -- -- 66
2019-12-08 22:00:00 12.4 8 Norte 22 Nordeste 0 -- -- 62
2019-12-08 21:00:00 11.6 0 Calma 24 Sur 0 -- -- 68
2019-12-08 20:00:00 13.2 8 Nordeste 21 Nordeste 0 -- -- 50
2019-12-08 19:00:00 13.2 6 Nordeste 30 Norte 0 -- -- 51
2019-12-08 18:00:00 14.3 14 Norte 28 Norte 0 -- -- 60
2019-12-08 17:00:00 16.8 8 Nordeste 20 Nordeste 0 -- -- 54
2019-12-08 16:00:00 17.2 10 Nordeste 19 Nordeste 0 -- -- 47
2019-12-08 15:00:00 18.2 4 Norte 18 Norte 0 -- -- 44
2019-12-08 14:00:00 17.3 5 Norte 17 Nordeste 0 -- -- 45
2019-12-08 13:00:00 16.3 4 Nordeste 22 Este 0 -- -- 55
2019-12-08 12:00:00 15.2 8 Este 18 Nordeste 0 -- -- 59
2019-12-08 11:00:00 13.4 5 Nordeste 12 Este 0 -- -- 65
2019-12-08 10:00:00 9.7 0 Calma 6 Nordeste 0 -- -- 77
2019-12-08 09:00:00 7.5 3 Nordeste 7 Nordeste 0 -- -- 78
2019-12-08 08:00:00 7.2 4 Nordeste 9 Nordeste 0 -- -- 77
2019-12-08 07:00:00 6.7 2 Este 5 Nordeste 0 -- -- 77
2019-12-08 06:00:00 7.2 4 Nordeste 8 Nordeste 0 -- -- 74
2019-12-08 05:00:00 7.7 4 Nordeste 8 Nordeste 0 -- -- 77
2019-12-08 04:00:00 7.9 4 Nordeste 7 Nordeste 0 -- -- 75
2019-12-08 03:00:00 7.9 0 Calma 9 Este 0 -- -- 78
2019-12-08 02:00:00 8.3 3 Nordeste 7 Nordeste 0 -- -- 83
2019-12-08 01:00:00 8.3 2 Este 9 Nordeste 0 -- -- 83
2019-12-08 00:00:00 8.9 4 Este 11 Norte 0 -- -- 88
2019-12-07 23:00:00 9.1 3 Nordeste 8 Nordeste 0 -- -- 87
2019-12-07 22:00:00 9.2 3 Nordeste 6 Sudeste 0 -- -- 88
2019-12-07 21:00:00 9.7 0 Calma 8 Oeste 0 -- -- 85
2019-12-07 20:00:00 10.8 3 Noroeste 6 Noroeste 0 -- -- 84
2019-12-07 19:00:00 11.8 0 Calma 6 Noroeste 0 -- -- 79
2019-12-07 18:00:00 13.7 3 Sudoeste 17 Sudoeste 0 -- -- 73
2019-12-07 17:00:00 15 8 Sudoeste 15 Sudoeste 0 -- -- 70
2019-12-07 16:00:00 16.6 8 Sudoeste 20 Sudoeste 0 -- -- 62
2019-12-07 15:00:00 17.4 8 Sur 17 Sur 0 -- -- 59
2019-12-07 14:00:00 16.8 6 Sudoeste 16 Sudoeste 0 -- -- 60
2019-12-07 13:00:00 15.7 6 Sudoeste 15 Sudoeste 0 -- -- 61
2019-12-07 12:00:00 14.5 5 Oeste 13 Sudoeste 0 -- -- 63
2019-12-07 11:00:00 13.5 5 Sudeste 12 Este 0 -- -- 67
2019-12-07 10:00:00 11.1 3 Este 10 Este 0 -- -- 73
2019-12-07 09:00:00 9.2 5 Nordeste 12 Este 0 -- -- 76
2019-12-07 08:00:00 9.9 5 Este 9 Nordeste 0 -- -- 73
2019-12-07 07:00:00 9.5 0 Calma 7 Este 0 -- -- 79
2019-12-07 06:00:00 10.1 4 Este 9 Este 0 -- -- 75
2019-12-07 05:00:00 10.2 4 Nordeste 8 Nordeste 0 -- -- 76
2019-12-07 04:00:00 10.3 4 Este 13 Este 0 -- -- 77
2019-12-07 03:00:00 10 4 Este 17 Sudeste 0 -- -- 80
2019-12-07 02:00:00 10 7 Este 21 Este 0 -- -- 82
2019-12-07 01:00:00 10 7 Este 25 Este 0 -- -- 85
2019-12-07 00:00:00 9.6 4 Este 19 Este 0 -- -- 84
2019-12-06 23:00:00 8.7 0 Calma 12 Nordeste 0 -- -- 83
2019-12-06 22:00:00 8.8 0 Calma 5 Sudoeste 0 -- -- 83
2019-12-06 21:00:00 9.5 0 Calma 8 Este 0 -- -- 79
2019-12-06 20:00:00 10.2 3 Nordeste 9 Este 0 -- -- 78
2019-12-06 19:00:00 10.8 4 Este 12 Este 0 -- -- 76
2019-12-06 18:00:00 12.8 4 Este 18 Sur 0 -- -- 71
2019-12-06 17:00:00 15.1 8 Sur 22 Sudoeste 0 -- -- 63
2019-12-06 16:00:00 16.1 8 Sur 19 Sur 0 -- -- 61
2019-12-06 15:00:00 15.7 8 Sur 17 Sur 0 -- -- 62
2019-12-06 14:00:00 14.5 3 Sur 19 Sudeste 0 -- -- 65
2019-12-06 13:00:00 14.4 8 Sudeste 24 Sur 0 -- -- 67
2019-12-06 12:00:00 14.6 8 Sudeste 23 Sudeste 0 -- -- 67
2019-12-06 11:00:00 13.5 5 Sur 18 Sur 0 -- -- 69
2019-12-06 10:00:00 11.5 5 Sudeste 13 Sur 0 -- -- 77
2019-12-06 09:00:00 9.4 0 Calma 12 Este 0 -- -- 78
2019-12-06 08:00:00 10.2 5 Este 19 Este 0 -- -- 74
2019-12-06 07:00:00 10.3 5 Este 20 Este 0 -- -- 75
2019-12-06 06:00:00 10.4 9 Este 20 Este 0 -- -- 74
2019-12-06 05:00:00 9.6 6 Este 15 Sudeste 0 -- -- 77
2019-12-06 04:00:00 8.8 0 Calma 6 Sudeste 0 -- -- 81
2019-12-06 03:00:00 9.6 4 Este 12 Sudeste 0 -- -- 80
2019-12-06 02:00:00 9.3 4 Sudeste 12 Sudeste 0 -- -- 75
2019-12-06 01:00:00 9.7 2 Sudeste 13 Sudeste 0 -- -- 75
2019-12-06 00:00:00 10.2 4 Sur 12 Sur 0 -- -- 74
2019-12-05 23:00:00 10.6 3 Sudeste 12 Este 0 -- -- 75
2019-12-05 22:00:00 10.8 8 Este 30 Este 0 -- -- 73
2019-12-05 21:00:00 10.6 11 Este 27 Nordeste 0 -- -- 74
2019-12-05 20:00:00 10.4 12 Este 24 Este 0 -- -- 78
2019-12-05 19:00:00 10.6 6 Este 15 Este 0 -- -- 72
2019-12-05 18:00:00 10.9 6 Este 17 Sudeste 0 -- -- 73
2019-12-05 17:00:00 12.5 5 Sudeste 20 Este 0 -- -- 68
2019-12-05 16:00:00 12.3 4 Este 19 Sur 0 -- -- 70
2019-12-05 15:00:00 12.3 7 Sur 26 Sudoeste 0 -- -- 71
2019-12-05 14:00:00 14.1 8 Sur 21 Sur 0 -- -- 60
2019-12-05 13:00:00 14.1 10 Sur 22 Sudoeste 0 -- -- 58
2019-12-05 12:00:00 13.1 8 Sur 20 Sudeste 0 -- -- 58
2019-12-05 11:00:00 11.6 3 Sudeste 13 Este 0 -- -- 61
2019-12-05 10:00:00 8.5 0 Calma 7 Este 0 -- -- 74
2019-12-05 09:00:00 6.4 3 Este 8 Nordeste 0 -- -- 74
2019-12-05 08:00:00 6.5 4 Nordeste 8 Nordeste 0 -- -- 75
2019-12-05 07:00:00 5.6 6 Nordeste 9 Nordeste 0 -- -- 72
2019-12-05 06:00:00 5.9 3 Nordeste 10 Nordeste 0 -- -- 75
2019-12-05 05:00:00 6.1 4 Norte 8 Este 0 -- -- 71
2019-12-05 04:00:00 6.4 3 Nordeste 20 Sudeste 0 -- -- 68
2019-12-05 03:00:00 6.7 6 Nordeste 9 Nordeste 0 -- -- 69
2019-12-05 02:00:00 6.9 0 Calma 4 Sudeste 0 -- -- 73
2019-12-05 01:00:00 6.6 2 Norte 7 Nordeste 0 -- -- 76
2019-12-05 00:00:00 6 3 Nordeste 8 Nordeste 0 -- -- 74
2019-12-04 23:00:00 5.7 3 Nordeste 7 Sudoeste 0 -- -- 73
2019-12-04 22:00:00 6.2 0 Calma 6 Nordeste 0 -- -- 78
2019-12-04 21:00:00 6.8 0 Calma 4 Nordeste 0 -- -- 80
2019-12-04 20:00:00 7.3 0 Calma 6 Nordeste 0 -- -- 76
2019-12-04 19:00:00 8.2 0 Calma 19 Oeste 0 -- -- 73
2019-12-04 18:00:00 9.6 7 Oeste 19 Oeste 0 -- -- 68
2019-12-04 17:00:00 12.3 12 Oeste 22 Oeste 0 -- -- 60
2019-12-04 16:00:00 12.9 9 Oeste 25 Oeste 0 -- -- 60
2019-12-04 15:00:00 12.7 10 Oeste 27 Oeste 0 -- -- 60
2019-12-04 14:00:00 13.7 15 Oeste 23 Oeste 0 -- -- 55
2019-12-04 13:00:00 12.6 6 Oeste 19 Noroeste 0 -- -- 65
2019-12-04 12:00:00 11.7 8 Oeste 15 Oeste 0 -- -- 73
2019-12-04 11:00:00 11.5 5 Sudoeste 17 Noroeste 0 -- -- 78
2019-12-04 10:00:00 10 7 Oeste 14 Oeste 0 -- -- 82
2019-12-04 09:00:00 8.9 3 Oeste 11 Noroeste 0 -- -- 84
2019-12-04 08:00:00 9.1 5 Noroeste 10 Noroeste 0 -- -- 84
2019-12-04 07:00:00 8.7 2 Nordeste 7 Oeste 0 -- -- 87
2019-12-04 06:00:00 8.7 0 Calma 12 Nordeste 0 -- -- 86
2019-12-04 05:00:00 7.9 0 Calma 11 Norte 0 -- -- 88
2019-12-04 04:00:00 8.2 4 Norte 8 Norte 0 -- -- 86
2019-12-04 03:00:00 9.3 3 Norte 14 Nordeste 0 -- -- 82
2019-12-04 02:00:00 9.1 0 Calma 5 Sudeste 0 -- -- 88
2019-12-04 01:00:00 9.5 0 Calma 4 Noroeste 0 -- -- 87
2019-12-04 00:00:00 9.7 3 Noroeste 5 Noroeste 0 -- -- 85
2019-12-03 23:00:00 9.7 3 Nordeste 4 Nordeste 0 -- -- 87
2019-12-03 22:00:00 10.2 0 Calma 3 Sudeste 0 -- -- 85
2019-12-03 21:00:00 10.7 0 Calma 5 Norte 0 -- -- 82
2019-12-03 20:00:00 11.4 5 Noroeste 15 Norte 0 -- -- 78
2019-12-03 19:00:00 11.4 4 Noroeste 17 Nordeste 0 -- -- 79
2019-12-03 18:00:00 11.8 3 Sudeste 6 Sudoeste 0 -- -- 82
2019-12-03 17:00:00 12.7 0 Calma 12 Oeste 0 -- -- 78
2019-12-03 16:00:00 13.2 5 Oeste 10 Noroeste 0 -- -- 71
2019-12-03 15:00:00 13.2 4 Sudoeste 12 Oeste 0 -- -- 74
2019-12-03 14:00:00 13 5 Sudoeste 15 Sudeste 0 -- -- 71
2019-12-03 13:00:00 13.3 3 Sudoeste 9 Sudeste 0 -- -- 77
2019-12-03 12:00:00 12.7 5 Sudoeste 11 Sudoeste 0 -- -- 79
2019-12-03 11:00:00 11 3 Sur 6 Sudeste 0 -- -- 82
2019-12-03 10:00:00 9.5 2 Noroeste 8 Nordeste 0 -- -- 88
2019-12-03 09:00:00 8.4 2 Nordeste 9 Sudeste 0 -- -- 89
2019-12-03 08:00:00 8.7 3 Norte 10 Este 0 -- -- 88
2019-12-03 07:00:00 8.5 3 Este 5 Nordeste 0 -- -- 90
2019-12-03 06:00:00 8.6 3 Nordeste 6 Norte 0 -- -- 91
2019-12-03 05:00:00 8.6 0 Calma 13 Sur 0.2 -- -- 91
2019-12-03 04:00:00 9 5 Nordeste 9 Nordeste 0 -- -- 88
2019-12-03 03:00:00 9.3 3 Nordeste 10 Nordeste 0.6 -- -- 89
2019-12-03 02:00:00 9.4 5 Este 12 Este 1.4 -- -- 90
2019-12-03 01:00:00 9.4 4 Este 8 Sur 1 -- -- 91
2019-12-03 00:00:00 9.3 3 Nordeste 5 Norte 2.4 -- -- 90
2019-12-02 23:00:00 9.3 3 Noroeste 13 Este 0 -- -- 86
2019-12-02 22:00:00 9.9 7 Este 23 Este 0 -- -- 77
2019-12-02 21:00:00 9.6 5 Sudeste 21 Este 0 -- -- 81
2019-12-02 20:00:00 9.6 0 Calma 24 Este 0 -- -- 82
2019-12-02 19:00:00 9.6 9 Este 26 Sudeste 0 -- -- 80
2019-12-02 18:00:00 9.7 13 Este 23 Este 0 -- -- 81
2019-12-02 17:00:00 9.3 7 Este 16 Este 0 -- -- 84
2019-12-02 16:00:00 8.5 4 Oeste 23 Este 2.2 -- -- 87
2019-12-02 15:00:00 9.4 9 Este 19 Sudeste 0.2 -- -- 79
2019-12-02 14:00:00 10.4 5 Sudeste 26 Sudeste 0 -- -- 83
2019-12-02 13:00:00 9.6 5 Sudeste 23 Este 0.2 -- -- 86
2019-12-02 12:00:00 9.2 6 Este 14 Este 0.4 -- -- 88
2019-12-02 11:00:00 9.3 3 Este 14 Este 0.8 -- -- 89
2019-12-02 10:00:00 8.2 7 Nordeste 18 Nordeste 2 -- -- 88
2019-12-02 09:00:00 8.4 4 Este 13 Nordeste 0.6 -- -- 89
2019-12-02 08:00:00 8.4 5 Este 9 Este 0 -- -- 87
2019-12-02 07:00:00 8.1 2 Sudeste 7 Sudeste 0 -- -- 90
2019-12-02 06:00:00 7.8 3 Este 7 Sur 0 -- -- 90
2019-12-02 05:00:00 7.6 2 Este 6 Este 0 -- -- 92
2019-12-02 04:00:00 7.6 5 Este 7 Este 0 -- -- 91
2019-12-02 03:00:00 8.3 0 Calma 6 Este 0 -- -- 90
2019-12-02 02:00:00 8.5 0 Calma 4 Este 0 -- -- 91
2019-12-02 01:00:00 9.1 0 Calma 6 Noroeste 0 -- -- 91
2019-12-02 00:00:00 9.2 0 Calma 6 Sudeste 0.2 -- -- 91
2019-12-01 23:00:00 9.2 0 Calma 3 Este 0.2 -- -- 90
2019-12-01 22:00:00 9.3 0 Calma 12 Sudoeste 0 -- -- 90
2019-12-01 21:00:00 9.5 2 Sur 10 Oeste 0 -- -- 91
2019-12-01 20:00:00 9.8 0 Calma 7 Oeste 0 -- -- 92
2019-12-01 19:00:00 10.1 4 Oeste 14 Sudoeste 0.6 -- -- 93
2019-12-01 18:00:00 10.2 3 Oeste 14 Sudoeste 1.8 -- -- 91
2019-12-01 17:00:00 10.5 5 Sudoeste 18 Sudoeste 1 -- -- 90
2019-12-01 16:00:00 11.2 8 Noroeste 20 Noroeste 1 -- -- 82
2019-12-01 15:00:00 12.9 9 Oeste 26 Oeste 0 -- -- 68
2019-12-01 14:00:00 14 15 Oeste 35 Oeste 0 -- -- 60
2019-12-01 13:00:00 14 11 Noroeste 30 Oeste 0 -- -- 55
2019-12-01 12:00:00 13.8 6 Este 22 Oeste 0 -- -- 56
2019-12-01 11:00:00 12.6 4 Noroeste 18 Oeste 0 -- -- 64
2019-12-01 10:00:00 11.5 5 Sur 17 Sudoeste 0 -- -- 70
2019-12-01 09:00:00 10 6 Sur 17 Sudoeste 0 -- -- 76
2019-12-01 08:00:00 10.4 5 Sudoeste 17 Sur 0 -- -- 77
2019-12-01 07:00:00 11.2 6 Sudoeste 33 Oeste 0 -- -- 75
2019-12-01 06:00:00 11.5 9 Norte 36 Sudeste 0 -- -- 77
2019-12-01 05:00:00 11.7 4 Sudoeste 15 Norte 0 -- -- 85
2019-12-01 04:00:00 12 0 Calma 9 Este 0.2 -- -- 91
2019-12-01 03:00:00 12.1 0 Calma 6 Oeste 0 -- -- 87
2019-12-01 02:00:00 12.2 2 Sur 19 Oeste 0 -- -- 82
2019-12-01 01:00:00 12.7 13 Noroeste 26 Oeste 0 -- -- 79
2019-12-01 00:00:00 12.4 7 Norte 27 Norte 0 -- -- 78
2019-11-30 23:00:00 11.6 8 Norte 28 Norte 0 -- -- 79
2019-11-30 22:00:00 10.7 0 Calma 8 Sudeste 0 -- -- 83
2019-11-30 21:00:00 11.2 3 Este 8 Este 0 -- -- 80
2019-11-30 20:00:00 11.9 2 Este 7 Sudeste 0 -- -- 78
2019-11-30 19:00:00 13.6 2 Este 5 Sur 0 -- -- 71
2019-11-30 18:00:00 16.2 3 Sudoeste 14 Oeste 0 -- -- 58
2019-11-30 17:00:00 18.5 9 Oeste 16 Oeste 0 -- -- 46
2019-11-30 16:00:00 20 8 Sudoeste 15 Sudoeste 0 -- -- 50
2019-11-30 15:00:00 20.6 6 Oeste 14 Oeste 0 -- -- 51
2019-11-30 14:00:00 20.3 5 Sudoeste 12 Oeste 0 -- -- 49
2019-11-30 13:00:00 18.5 6 Oeste 11 Noroeste 0 -- -- 47
2019-11-30 12:00:00 18.3 3 Sudeste 11 Sudoeste 0 -- -- 51
2019-11-30 11:00:00 16.4 5 Sudoeste 7 Sur 0 -- -- 48
2019-11-30 10:00:00 14.5 0 Calma 5 Este 0 -- -- 58
2019-11-30 09:00:00 11.7 0 Calma 10 Nordeste 0 -- -- 58
2019-11-30 08:00:00 11.9 5 Nordeste 9 Nordeste 0 -- -- 55
2019-11-30 07:00:00 11.5 3 Este 7 Nordeste 0 -- -- 58
2019-11-30 06:00:00 12.6 8 Nordeste 14 Nordeste 0 -- -- 59
2019-11-30 05:00:00 11.6 0 Calma 4 Este 0 -- -- 56
2019-11-30 04:00:00 11.9 0 Calma 8 Nordeste 0 -- -- 58
2019-11-30 03:00:00 12 5 Nordeste 8 Nordeste 0 -- -- 56
2019-11-30 02:00:00 12.2 3 Este 10 Nordeste 0 -- -- 63
2019-11-30 01:00:00 12.7 5 Nordeste 9 Nordeste 0 -- -- 59
2019-11-30 00:00:00 12.2 4 Este 8 Nordeste 0 -- -- 56
2019-11-29 23:00:00 12.3 3 Nordeste 8 Nordeste 0 -- -- 60
2019-11-29 22:00:00 12.4 3 Nordeste 8 Nordeste 0 -- -- 61
2019-11-29 21:00:00 13.4 3 Nordeste 5 Nordeste 0 -- -- 63
2019-11-29 20:00:00 13.8 4 Nordeste 6 Nordeste 0 -- -- 66
2019-11-29 19:00:00 15.3 3 Este 5 Este 0 -- -- 66
2019-11-29 18:00:00 18.9 0 Calma 19 Oeste 0 -- -- 54
2019-11-29 17:00:00 20.6 11 Norte 24 Norte 0 -- -- 41
2019-11-29 16:00:00 21.5 10 Noroeste 21 Noroeste 0 -- -- 44
2019-11-29 15:00:00 21.4 11 Noroeste 22 Noroeste 0 -- -- 39
2019-11-29 14:00:00 21.4 10 Noroeste 18 Oeste 0 -- -- 40
2019-11-29 13:00:00 20.4 4 Sudoeste 9 Sudoeste 0 -- -- 48
2019-11-29 12:00:00 18.2 2 Noroeste 7 Sudoeste 0 -- -- 54
2019-11-29 11:00:00 15.7 0 Calma 7 Oeste 0 -- -- 61
2019-11-29 10:00:00 12.4 0 Calma 8 Este 0 -- -- 72
2019-11-29 09:00:00 10.1 3 Sudeste 9 Este 0 -- -- 77
2019-11-29 08:00:00 9.4 3 Este 9 Este 0 -- -- 79
2019-11-29 07:00:00 9.8 5 Este 7 Este 0 -- -- 77
2019-11-29 06:00:00 9.4 6 Este 10 Este 0 -- -- 79
2019-11-29 05:00:00 9.3 2 Nordeste 6 Nordeste 0 -- -- 79
2019-11-29 04:00:00 9.2 3 Este 5 Este 0 -- -- 80
2019-11-29 03:00:00 9.6 4 Nordeste 6 Nordeste 0 -- -- 79
2019-11-29 02:00:00 9.7 5 Nordeste 9 Nordeste 0 -- -- 79
2019-11-29 01:00:00 9.6 2 Nordeste 7 Nordeste 0 -- -- 80
2019-11-29 00:00:00 9.9 2 Este 9 Nordeste 0 -- -- 81
2019-11-28 23:00:00 10.1 4 Nordeste 9 Sur 0 -- -- 81
2019-11-28 22:00:00 10.7 5 Sur 12 Sudoeste 0 -- -- 83
2019-11-28 21:00:00 11.5 4 Sur 16 Norte 0 -- -- 80
2019-11-28 20:00:00 11.6 8 Sudeste 15 Sudeste 0 -- -- 80
2019-11-28 19:00:00 13.1 4 Sudeste 10 Sudeste 0 -- -- 72
2019-11-28 18:00:00 15.3 6 Norte 15 Norte 0 -- -- 62
2019-11-28 17:00:00 17.3 5 Norte 24 Nordeste 0 -- -- 58
2019-11-28 16:00:00 17.8 7 Nordeste 24 Noroeste 0 -- -- 57
2019-11-28 15:00:00 17.5 13 Noroeste 24 Noroeste 0 -- -- 54
2019-11-28 14:00:00 17.1 10 Noroeste 27 Noroeste 0 -- -- 58
2019-11-28 13:00:00 16.2 15 Noroeste 27 Norte 0 -- -- 56
2019-11-28 12:00:00 14.9 13 Noroeste 25 Noroeste 0 -- -- 59
2019-11-28 11:00:00 13.5 5 Sudoeste 11 Sudoeste 0 -- -- 72
2019-11-28 10:00:00 11.4 6 Sur 14 Sudoeste 0 -- -- 79
2019-11-28 09:00:00 9 4 Nordeste 11 Nordeste 0 -- -- 85
2019-11-28 08:00:00 9.2 4 Nordeste 13 Sudeste 0 -- -- 84
2019-11-28 07:00:00 10.2 5 Este 26 Nordeste 0 -- -- 81
2019-11-28 06:00:00 9.2 4 Este 10 Este 0 -- -- 86
2019-11-28 05:00:00 9.9 3 Este 14 Este 0 -- -- 84
2019-11-28 04:00:00 10.7 5 Norte 32 Norte 0 -- -- 80
2019-11-28 03:00:00 11.5 9 Nordeste 31 Nordeste 0 -- -- 74
2019-11-28 02:00:00 11.7 12 Norte 31 Norte 0 -- -- 75
2019-11-28 01:00:00 11.6 12 Norte 23 Nordeste 0 -- -- 80
2019-11-28 00:00:00 11.7 9 Nordeste 22 Norte 0 -- -- 79
2019-11-27 23:00:00 12.5 4 Norte 24 Nordeste 0 -- -- 71
2019-11-27 22:00:00 12.8 2 Nordeste 30 Norte 0 -- -- 71
2019-11-27 21:00:00 13 6 Noroeste 10 Norte 0 -- -- 77
2019-11-27 20:00:00 13.1 0 Calma 9 Sudeste 0 -- -- 80
2019-11-27 19:00:00 13.3 0 Calma 13 Oeste 0 -- -- 75
2019-11-27 18:00:00 14.7 4 Oeste 15 Oeste 0 -- -- 69
2019-11-27 17:00:00 15.9 10 Oeste 24 Oeste 0 -- -- 65
2019-11-27 16:00:00 15.5 10 Oeste 35 Noroeste 0 -- -- 66
2019-11-27 15:00:00 15.9 6 Oeste 27 Oeste 0 -- -- 66
2019-11-27 14:00:00 16.1 9 Oeste 31 Oeste 0 -- -- 63
2019-11-27 06:00:00 -- -- -- -- -- -- -- -- --
2019-11-27 05:00:00 -- -- -- -- -- -- -- -- --
2019-11-27 04:00:00 -- -- -- -- -- -- -- -- --
2019-11-27 03:00:00 12.6 9 Noroeste 24 Noroeste 0.4 -- -- 94
2019-11-27 02:00:00 12.6 11 Noroeste 22 Oeste 0 -- -- 92
2019-11-27 01:00:00 12.9 7 Oeste 26 Oeste 0 -- -- 87
2019-11-27 00:00:00 13 6 Sudoeste 24 Sudoeste 0 -- -- 87
2019-11-26 23:00:00 12.7 10 Sudoeste 20 Oeste 0 -- -- 86
2019-11-26 22:00:00 12.7 7 Oeste 20 Oeste 0 -- -- 84
2019-11-26 21:00:00 13.1 8 Oeste 16 Oeste 0 -- -- 83
2019-11-26 20:00:00 13.1 4 Oeste 10 Noroeste 0 -- -- 80
2019-11-26 19:00:00 14 4 Noroeste 14 Oeste 0 -- -- 78
2019-11-26 18:00:00 15.1 6 Oeste 22 Oeste 0 -- -- 76
2019-11-26 17:00:00 15.8 9 Oeste 23 Noroeste 0 -- -- 78
2019-11-26 16:00:00 17.2 8 Oeste 19 Oeste 0 -- -- 76
2019-11-26 15:00:00 18.4 11 Oeste 21 Oeste 0 -- -- 71
2019-11-26 14:00:00 17.5 12 Noroeste 20 Oeste 0 -- -- 77
2019-11-26 13:00:00 17.4 10 Oeste 20 Oeste 0 -- -- 75
2019-11-26 12:00:00 17.5 5 Sur 11 Oeste 0 -- -- 76
2019-11-26 11:00:00 16 6 Sudoeste 18 Norte 0 -- -- 80
2019-11-26 10:00:00 15 9 Norte 21 Nordeste 0 -- -- 83
2019-11-26 09:00:00 14 15 Nordeste 36 Norte 0 -- -- 86
2019-11-26 08:00:00 13.6 16 Norte 29 Nordeste 0 -- -- 86
2019-11-26 07:00:00 13.4 8 Norte 17 Nordeste 0 -- -- 85
2019-11-26 06:00:00 12.5 3 Sudeste 14 Sudeste 0 -- -- 87
2019-11-26 05:00:00 11.6 3 Este 16 Sudeste 0 -- -- 85
2019-11-26 04:00:00 12.3 3 Noroeste 12 Sudoeste 0 -- -- 86
2019-11-26 03:00:00 12.4 4 Este 11 Nordeste 0 -- -- 87
2019-11-26 02:00:00 13 2 Sudoeste 21 Noroeste 0.2 -- -- 86
2019-11-26 01:00:00 13.5 2 Noroeste 9 Norte 0 -- -- 92
2019-11-26 00:00:00 13.7 3 Norte 7 Norte 0 -- -- 93
2019-11-25 23:00:00 13.7 3 Norte 5 Noroeste 0 -- -- 94
2019-11-25 22:00:00 13.7 0 Calma 7 Sudoeste 0.2 -- -- 93
2019-11-25 21:00:00 13.9 4 Oeste 10 Noroeste 0 -- -- 93
2019-11-25 20:00:00 13.7 2 Norte 6 Norte 0.2 -- -- 92
2019-11-25 19:00:00 13.7 0 Calma 8 Norte 0 -- -- 91
2019-11-25 18:00:00 13.9 2 Sur 5 Noroeste 0 -- -- 91
2019-11-25 17:00:00 13.9 4 Oeste 12 Noroeste 0 -- -- 90
2019-11-25 16:00:00 14.1 6 Noroeste 19 Oeste 0 -- -- 88
2019-11-25 15:00:00 14.8 9 Oeste 22 Oeste 0 -- -- 84
2019-11-25 14:00:00 14.8 5 Sudeste 10 Este 0 -- -- 84
2019-11-25 13:00:00 14.7 4 Sudoeste 10 Sudoeste 0 -- -- 82
2019-11-25 12:00:00 14.2 4 Noroeste 18 Norte 0 -- -- 81
2019-11-25 11:00:00 14.1 5 Noroeste 13 Noroeste 0 -- -- 81
2019-11-25 10:00:00 13 4 Noroeste 10 Noroeste 0 -- -- 84
2019-11-25 09:00:00 10.3 0 Calma 5 Nordeste 0 -- -- 90
2019-11-25 08:00:00 9.3 3 Nordeste 5 Nordeste 0 -- -- 89
2019-11-25 07:00:00 9.6 2 Nordeste 5 Nordeste 0 -- -- 86
2019-11-25 06:00:00 10 0 Calma 6 Sudeste 0 -- -- 86
2019-11-25 05:00:00 10.5 3 Sur 6 Este 0 -- -- 84
2019-11-25 04:00:00 9.7 3 Norte 14 Sudeste 0 -- -- 84
2019-11-25 03:00:00 9.3 2 Oeste 14 Este 0 -- -- 82
2019-11-25 02:00:00 10 5 Sur 27 Norte 0 -- -- 79
2019-11-25 01:00:00 9.8 5 Sudeste 29 Este 0 -- -- 77
2019-11-25 00:00:00 9.8 9 Sudeste 27 Norte 0 -- -- 77
2019-11-24 23:00:00 10.5 10 Noroeste 42 Noroeste 0 -- -- 74
2019-11-24 22:00:00 10.3 16 Nordeste 36 Nordeste 0 -- -- 74
2019-11-24 21:00:00 9.7 10 Norte 25 Nordeste 0 -- -- 75
2019-11-24 20:00:00 9.5 7 Nordeste 22 Nordeste 0 -- -- 75
2019-11-24 19:00:00 9.9 7 Nordeste 21 Norte 0 -- -- 73
2019-11-24 18:00:00 10.9 8 Norte 22 Nordeste 0 -- -- 66
2019-11-24 17:00:00 12.6 8 Nordeste 28 Nordeste 0 -- -- 59
2019-11-24 16:00:00 13.5 12 Nordeste 35 Nordeste 0 -- -- 55
2019-11-24 15:00:00 14 9 Nordeste 26 Nordeste 0 -- -- 51
2019-11-24 14:00:00 13 13 Nordeste 30 Nordeste 0 -- -- 51
2019-11-24 13:00:00 12.3 14 Nordeste 30 Nordeste 0 -- -- 53
2019-11-24 12:00:00 11.9 11 Nordeste 27 Nordeste 0 -- -- 60
2019-11-24 11:00:00 10.3 8 Nordeste 21 Nordeste 0 -- -- 68
2019-11-24 10:00:00 8.8 4 Este 22 Este 0 -- -- 72
2019-11-24 09:00:00 7.1 5 Este 12 Nordeste 0 -- -- 75
2019-11-24 08:00:00 7.5 4 Nordeste 18 Nordeste 0 -- -- 73
2019-11-24 07:00:00 7.4 8 Nordeste 18 Este 0 -- -- 74
2019-11-24 06:00:00 6.6 5 Este 15 Nordeste 0 -- -- 79
2019-11-24 05:00:00 6.5 4 Sudeste 10 Sudeste 0 -- -- 79
2019-11-24 04:00:00 6.9 2 Sudeste 11 Nordeste 0 -- -- 77
2019-11-24 03:00:00 7.5 5 Este 13 Este 0 -- -- 77
2019-11-24 02:00:00 8 6 Este 23 Nordeste 0 -- -- 79
2019-11-24 01:00:00 8.5 12 Nordeste 26 Este 0 -- -- 76
2019-11-24 00:00:00 8.8 6 Nordeste 16 Norte 0 -- -- 73
2019-11-23 23:00:00 9 3 Norte 16 Oeste 0 -- -- 71
2019-11-23 22:00:00 9 0 Calma 14 Oeste 0 -- -- 72
2019-11-23 21:00:00 9.7 6 Oeste 29 Noroeste 0 -- -- 67
2019-11-23 20:00:00 10 13 Noroeste 31 Noroeste 0 -- -- 66
2019-11-23 19:00:00 10.1 10 Noroeste 30 Noroeste 0 -- -- 67
2019-11-23 18:00:00 10.4 6 Noroeste 34 Noroeste 0 -- -- 66
2019-11-23 17:00:00 10.8 11 Noroeste 26 Noroeste 0 -- -- 62
2019-11-23 16:00:00 11.1 7 Noroeste 37 Oeste 0 -- -- 63
2019-11-23 15:00:00 12 10 Oeste 41 Noroeste 0 -- -- 61
2019-11-23 14:00:00 11.9 17 Noroeste 35 Noroeste 0 -- -- 59
2019-11-23 13:00:00 11.6 14 Noroeste 40 Noroeste 0 -- -- 64
2019-11-23 12:00:00 10.7 9 Noroeste 36 Noroeste 0 -- -- 71
2019-11-23 11:00:00 10.2 21 Noroeste 47 Oeste 0 -- -- 72
2019-11-23 10:00:00 9.9 24 Noroeste 54 Noroeste 0 -- -- 75
2019-11-23 09:00:00 9.2 12 Noroeste 44 Noroeste 0.2 -- -- 79
2019-11-23 08:00:00 9.2 14 Noroeste 50 Noroeste 0.8 -- -- 82
2019-11-23 07:00:00 9.9 5 Noroeste 33 Noroeste 0.4 -- -- 89
2019-11-23 06:00:00 10.1 15 Oeste 57 Noroeste 0 -- -- 83
2019-11-23 05:00:00 11 23 Noroeste 58 Oeste 0 -- -- 70
2019-11-23 04:00:00 11.1 23 Oeste 45 Oeste 0 -- -- 70
2019-11-23 03:00:00 11.1 16 Oeste 50 Oeste 0 -- -- 76
2019-11-23 02:00:00 11.4 14 Oeste 39 Oeste 0 -- -- 73
2019-11-23 01:00:00 11.7 9 Oeste 38 Oeste 0 -- -- 79
2019-11-23 00:00:00 11.5 9 Oeste 37 Sudoeste 0 -- -- 78
2019-11-22 23:00:00 11.2 9 Nordeste 36 Sudoeste 0 -- -- 76
2019-11-22 22:00:00 12 3 Sudeste 54 Oeste 0 -- -- 82
2019-11-22 21:00:00 13.6 24 Oeste 53 Oeste 4.6 -- -- 87
2019-11-22 20:00:00 14.2 22 Noroeste 63 Oeste 9.8 -- -- 92
2019-11-22 19:00:00 14.4 22 Oeste 59 Oeste 3 -- -- 94
2019-11-22 18:00:00 14.2 16 Oeste 57 Noroeste 5.4 -- -- 95
2019-11-22 17:00:00 14.2 25 Oeste 57 Sudoeste 0.4 -- -- 90
2019-11-22 16:00:00 13.8 25 Oeste 58 Oeste 0 -- -- 89
2019-11-22 15:00:00 13.5 18 Oeste 40 Oeste 3.6 -- -- 98
2019-11-22 14:00:00 13.1 14 Sudoeste 32 Oeste 1.6 -- -- 98
2019-11-22 13:00:00 13 9 Sudoeste 23 Sur 5 -- -- 98
2019-11-22 12:00:00 13 10 Oeste 27 Sudoeste 1.8 -- -- 98
2019-11-22 11:00:00 12.8 11 Oeste 28 Sudoeste 0.8 -- -- 98
2019-11-22 10:00:00 12.7 6 Oeste 31 Sudoeste 1.2 -- -- 98
2019-11-22 09:00:00 12.5 12 Sudoeste 23 Sur 4 -- -- 98
2019-11-22 08:00:00 12.2 9 Noroeste 26 Oeste 9.6 -- -- 98
2019-11-22 07:00:00 12.1 0 Calma 12 Oeste 4.4 -- -- 98
2019-11-22 06:00:00 12.1 6 Sudoeste 19 Oeste 1.4 -- -- 98
2019-11-22 05:00:00 12 9 Oeste 22 Oeste 1 -- -- 98
2019-11-22 04:00:00 11.9 9 Sudoeste 18 Sudoeste 4.4 -- -- 98
2019-11-22 03:00:00 11.7 6 Sudoeste 15 Oeste 1.6 -- -- 98
2019-11-22 02:00:00 11.5 6 Sudoeste 15 Sudoeste 2 -- -- 98
2019-11-22 01:00:00 11.4 4 Oeste 13 Sudoeste 1 -- -- 98
2019-11-22 00:00:00 11.1 4 Oeste 10 Oeste 0.2 -- -- 97
2019-11-21 23:00:00 11 2 Sudoeste 12 Sudoeste 1 -- -- 97
2019-11-21 22:00:00 11 3 Oeste 6 Oeste 0.2 -- -- 97
2019-11-21 21:00:00 10.9 3 Oeste 7 Oeste 0 -- -- 97
2019-11-21 20:00:00 10.9 0 Calma 14 Sudoeste 0 -- -- 97
2019-11-21 19:00:00 11.1 5 Sudoeste 10 Oeste 0.2 -- -- 97
2019-11-21 18:00:00 11.2 6 Sudoeste 18 Oeste 1.8 -- -- 97
2019-11-21 17:00:00 11.4 4 Oeste 14 Sudoeste 3.2 -- -- 96
2019-11-21 16:00:00 11.4 4 Sudoeste 19 Sur 5 -- -- 96
2019-11-21 15:00:00 11.9 4 Sudoeste 16 Sudoeste 0.4 -- -- 95
2019-11-21 14:00:00 11.5 5 Sudoeste 15 Oeste 0.2 -- -- 96
2019-11-21 13:00:00 11 8 Oeste 15 Sudoeste 1.2 -- -- 96
2019-11-21 12:00:00 10.9 4 Sudoeste 9 Oeste 0.8 -- -- 96
2019-11-21 11:00:00 10.6 0 Calma 4 Sudoeste 0 -- -- 96
2019-11-21 10:00:00 10.2 3 Nordeste 8 Nordeste 0 -- -- 96
2019-11-21 09:00:00 9.7 2 Este 8 Noroeste 1.4 -- -- 96
2019-11-21 08:00:00 9.5 3 Este 8 Sudeste 3.4 -- -- 96
2019-11-21 07:00:00 9.4 0 Calma 8 Sudeste 1.6 -- -- 96
2019-11-21 06:00:00 9.2 3 Este 6 Sudeste 0.8 -- -- 96
2019-11-21 05:00:00 9.1 0 Calma 6 Sudoeste 5.4 -- -- 95
2019-11-21 04:00:00 9.2 2 Nordeste 5 Noroeste 1.6 -- -- 95
2019-11-21 03:00:00 9.1 2 Noroeste 4 Oeste 1.4 -- -- 95
2019-11-21 02:00:00 8.9 0 Calma 7 Nordeste 0.2 -- -- 94
2019-11-21 01:00:00 8.8 2 Este 4 Nordeste 0 -- -- 95
2019-11-21 00:00:00 8.6 0 Calma 6 Nordeste 0.2 -- -- 95
2019-11-20 23:00:00 8.6 0 Calma 8 Oeste 0 -- -- 95
2019-11-20 22:00:00 8.6 0 Calma 5 Noroeste 0 -- -- 95
2019-11-20 21:00:00 8.5 0 Calma 8 Oeste 0 -- -- 96
2019-11-20 20:00:00 8.6 0 Calma 13 Sudoeste 0 -- -- 96
2019-11-20 19:00:00 8.4 3 Sudoeste 13 Sudoeste 0 -- -- 96
2019-11-20 18:00:00 8.4 5 Sudoeste 19 Sudoeste 0.2 -- -- 95
2019-11-20 17:00:00 8.7 6 Oeste 17 Sudoeste 0.8 -- -- 95
2019-11-20 16:00:00 8.6 8 Sudoeste 21 Oeste 0 -- -- 95
2019-11-20 15:00:00 8.9 0 Calma 17 Sur 0.4 -- -- 94
2019-11-20 14:00:00 8.7 4 Oeste 14 Sur 0.2 -- -- 94
2019-11-20 13:00:00 8.7 3 Noroeste 13 Oeste 0.4 -- -- 93
2019-11-20 12:00:00 8.7 2 Sur 10 Oeste 1.2 -- -- 91
2019-11-20 11:00:00 8.5 2 Sudeste 7 Noroeste 1.6 -- -- 91
2019-11-20 10:00:00 8.5 0 Calma 5 Noroeste 0 -- -- 86
2019-11-20 09:00:00 7.5 4 Nordeste 7 Nordeste 0 -- -- 83
2019-11-20 08:00:00 6.3 5 Nordeste 9 Nordeste 0 -- -- 78
2019-11-20 07:00:00 4.9 6 Nordeste 10 Nordeste 0 -- -- 77
2019-11-20 06:00:00 4.9 3 Este 8 Nordeste 0 -- -- 82
2019-11-20 05:00:00 5.7 2 Este 9 Nordeste 0 -- -- 79
2019-11-20 04:00:00 6.6 6 Nordeste 9 Nordeste 0 -- -- 79
2019-11-20 03:00:00 6.8 4 Nordeste 9 Nordeste 0 -- -- 77
2019-11-20 02:00:00 6.7 3 Nordeste 8 Nordeste 0 -- -- 81
2019-11-20 01:00:00 7 5 Nordeste 9 Nordeste 0 -- -- 81
2019-11-20 00:00:00 6.8 3 Nordeste 6 Nordeste 0 -- -- 81
2019-11-19 23:00:00 8.4 2 Nordeste 5 Sudeste 0 -- -- 79
2019-11-19 22:00:00 8.9 2 Nordeste 3 Nordeste 0 -- -- 79
2019-11-19 21:00:00 9 0 Calma 3 Sudoeste 0 -- -- 76
2019-11-19 20:00:00 9.7 0 Calma 6 Este 0 -- -- 73
2019-11-19 19:00:00 10.2 2 Noroeste 13 Sudoeste 0 -- -- 68
2019-11-19 18:00:00 11.7 5 Sudoeste 12 Noroeste 0 -- -- 61
2019-11-19 17:00:00 12.7 3 Noroeste 16 Oeste 0 -- -- 54
2019-11-19 16:00:00 13.9 5 Oeste 19 Oeste 0 -- -- 52
2019-11-19 15:00:00 15 10 Oeste 19 Oeste 0 -- -- 51
2019-11-19 14:00:00 14.4 9 Oeste 16 Oeste 0 -- -- 50
2019-11-19 13:00:00 12.9 5 Sudoeste 15 Noroeste 0 -- -- 48
2019-11-19 12:00:00 11.8 7 Nordeste 18 Este 0 -- -- 52
2019-11-19 11:00:00 10.6 3 Sudoeste 8 Oeste 0 -- -- 60
2019-11-19 10:00:00 7.6 0 Calma 5 Este 0 -- -- 75
2019-11-19 09:00:00 4.9 3 Sudeste 9 Nordeste 0 -- -- 78
2019-11-19 08:00:00 5 8 Nordeste 12 Nordeste 0 -- -- 77
2019-11-19 07:00:00 5.2 5 Nordeste 7 Nordeste 0 -- -- 76
2019-11-19 06:00:00 5.1 3 Nordeste 7 Norte 0 -- -- 81
2019-11-19 05:00:00 5 0 Calma 6 Nordeste 0 -- -- 79
2019-11-19 04:00:00 5.4 5 Nordeste 7 Nordeste 0 -- -- 80
2019-11-19 03:00:00 5.9 2 Nordeste 8 Nordeste 0 -- -- 78
2019-11-19 02:00:00 5.6 3 Nordeste 8 Nordeste 0 -- -- 79
2019-11-19 01:00:00 5.7 2 Nordeste 11 Este 0 -- -- 80
2019-11-19 00:00:00 6.4 3 Oeste 11 Sudoeste 0 -- -- 78
2019-11-18 23:00:00 6 2 Este 6 Este 0 -- -- 79
2019-11-18 22:00:00 6.4 2 Nordeste 12 Sudeste 0 -- -- 77
2019-11-18 21:00:00 7.2 2 Norte 9 Nordeste 0 -- -- 74
2019-11-18 20:00:00 8 4 Sudeste 28 Nordeste 0 -- -- 72
2019-11-18 19:00:00 8.9 12 Nordeste 42 Norte 0 -- -- 69
2019-11-18 18:00:00 9.7 21 Norte 38 Norte 0 -- -- 67
2019-11-18 17:00:00 11.3 12 Norte 30 Nordeste 0 -- -- 62
2019-11-18 16:00:00 11.4 9 Nordeste 28 Nordeste 0 -- -- 62
2019-11-18 15:00:00 11.3 12 Norte 27 Nordeste 0 -- -- 62
2019-11-18 14:00:00 11.2 8 Este 22 Nordeste 0 -- -- 66
2019-11-18 13:00:00 9.3 6 Noroeste 29 Noroeste 0 -- -- 72
2019-11-18 12:00:00 8.3 9 Norte 41 Nordeste 0 -- -- 72
2019-11-18 11:00:00 7.9 17 Nordeste 39 Nordeste 0 -- -- 74
2019-11-18 10:00:00 6.9 22 Nordeste 50 Nordeste 0 -- -- 77
2019-11-18 09:00:00 6.3 26 Norte 54 Norte 0 -- -- 80
2019-11-18 08:00:00 6.3 19 Norte 51 Norte 0 -- -- 81
2019-11-18 07:00:00 7.1 15 Nordeste 39 Nordeste 0.2 -- -- 79
2019-11-18 06:00:00 9 12 Oeste 37 Noroeste 0 -- -- 65
2019-11-18 05:00:00 10.8 12 Oeste 41 Oeste 0 -- -- 82
2019-11-18 04:00:00 11.3 18 Oeste 53 Oeste 0.2 -- -- 87
2019-11-18 03:00:00 11.1 21 Oeste 56 Noroeste 0.6 -- -- 89
2019-11-18 02:00:00 11.2 19 Oeste 47 Oeste 0.2 -- -- 85
2019-11-18 01:00:00 11.2 19 Oeste 48 Oeste 0.4 -- -- 87
2019-11-18 00:00:00 11.3 17 Oeste 45 Oeste 0.2 -- -- 88
2019-11-17 23:00:00 11.3 26 Oeste 46 Oeste 0.2 -- -- 87
2019-11-17 22:00:00 11.4 22 Oeste 48 Oeste 0 -- -- 87
2019-11-17 21:00:00 11.3 15 Oeste 38 Oeste 0 -- -- 90
2019-11-17 20:00:00 11.2 14 Oeste 26 Noroeste 0 -- -- 89
2019-11-17 19:00:00 10.9 11 Noroeste 27 Noroeste 0 -- -- 87
2019-11-17 18:00:00 10.9 10 Noroeste 27 Noroeste 0 -- -- 89
2019-11-17 17:00:00 10.6 10 Noroeste 21 Noroeste 1.2 -- -- 93
2019-11-17 16:00:00 10.1 9 Noroeste 27 Noroeste 0.4 -- -- 92
2019-11-17 15:00:00 9.8 14 Noroeste 30 Oeste 0.4 -- -- 91
2019-11-17 14:00:00 9.5 12 Noroeste 26 Noroeste 0.4 -- -- 90
2019-11-17 13:00:00 9.6 3 Sur 8 Sur 0 -- -- 84
2019-11-17 12:00:00 8.5 2 Sur 8 Sur 0 -- -- 79
2019-11-17 11:00:00 8.6 6 Sudoeste 13 Sudoeste 0 -- -- 72
2019-11-17 10:00:00 8.9 8 Oeste 21 Noroeste 0 -- -- 63
2019-11-17 09:00:00 7.6 7 Oeste 22 Noroeste 0 -- -- 55
2019-11-17 08:00:00 6.4 3 Norte 19 Noroeste 0 -- -- 59
2019-11-17 07:00:00 6.3 4 Norte 16 Norte 0 -- -- 58
2019-11-17 06:00:00 6.3 2 Oeste 14 Norte 0 -- -- 61
2019-11-17 05:00:00 6.2 4 Norte 12 Noroeste 0 -- -- 61
2019-11-17 04:00:00 5.4 3 Norte 15 Norte 0 -- -- 65
2019-11-17 03:00:00 4.4 3 Sudeste 9 Sur 0 -- -- 68
2019-11-17 02:00:00 4.7 4 Sudeste 10 Sur 0 -- -- 67
2019-11-17 01:00:00 4.8 2 Sur 6 Este 0 -- -- 67
2019-11-17 00:00:00 5.1 4 Sudeste 8 Sur 0 -- -- 67
2019-11-16 23:00:00 5.6 0 Calma 10 Sudoeste 0 -- -- 65
2019-11-16 22:00:00 6.8 6 Sur 14 Norte 0 -- -- 60
2019-11-16 21:00:00 7.6 5 Sudeste 40 Nordeste 0 -- -- 56
2019-11-16 20:00:00 7.9 17 Nordeste 36 Nordeste 0 -- -- 53
2019-11-16 19:00:00 7.6 7 Norte 24 Nordeste 0 -- -- 50
2019-11-16 18:00:00 9.1 8 Nordeste 24 Nordeste 0 -- -- 52
2019-11-16 17:00:00 11.4 9 Nordeste 23 Nordeste 0 -- -- 47
2019-11-16 16:00:00 12.1 9 Nordeste 24 Norte 0 -- -- 46
2019-11-16 15:00:00 11.3 14 Norte 31 Norte 0 -- -- 44
2019-11-16 14:00:00 10.8 13 Nordeste 31 Norte 0 -- -- 46
2019-11-16 13:00:00 10.1 14 Nordeste 31 Norte 0 -- -- 50
2019-11-16 12:00:00 10 7 Nordeste 21 Este 0 -- -- 48
2019-11-16 11:00:00 8.1 9 Nordeste 28 Este 0 -- -- 48
2019-11-16 10:00:00 6 12 Sudeste 27 Sudeste 0 -- -- 61
2019-11-16 09:00:00 3.3 0 Calma 16 Sudeste 0 -- -- 72
2019-11-16 08:00:00 2.5 3 Este 15 Nordeste 0 -- -- 76
2019-11-16 07:00:00 2.6 3 Noroeste 17 Sudeste 0 -- -- 77
2019-11-16 06:00:00 2.5 10 Sudeste 17 Sudeste 0 -- -- 79
2019-11-16 05:00:00 2.5 2 Este 7 Sudoeste 0 -- -- 77
2019-11-16 04:00:00 3.2 3 Sur 8 Sudeste 0 -- -- 74
2019-11-16 03:00:00 4.1 6 Sudeste 20 Norte 0 -- -- 71
2019-11-16 02:00:00 5.5 4 Norte 21 Nordeste 0 -- -- 64
2019-11-16 01:00:00 5.8 4 Norte 24 Norte 0 -- -- 65
2019-11-16 00:00:00 5.9 4 Nordeste 17 Nordeste 0 -- -- 66
2019-11-15 23:00:00 5.8 3 Sudeste 20 Noroeste 0 -- -- 66
2019-11-15 22:00:00 6.5 4 Norte 17 Noroeste 0 -- -- 63
2019-11-15 21:00:00 6.9 3 Norte 18 Noroeste 0 -- -- 61
2019-11-15 20:00:00 6.7 0 Calma 17 Oeste 0 -- -- 62
2019-11-15 19:00:00 7 4 Noroeste 26 Norte 0 -- -- 60
2019-11-15 18:00:00 7.6 10 Noroeste 24 Noroeste 0 -- -- 59
2019-11-15 17:00:00 7.7 9 Norte 32 Noroeste 0 -- -- 57
2019-11-15 16:00:00 8.6 10 Noroeste 38 Oeste 0 -- -- 51
2019-11-15 15:00:00 10 12 Oeste 37 Oeste 0 -- -- 48
2019-11-15 14:00:00 9.5 18 Oeste 44 Oeste 0 -- -- 49
2019-11-15 13:00:00 9.2 8 Noroeste 30 Noroeste 0 -- -- 48
2019-11-15 12:00:00 9.6 8 Este 22 Nordeste 0 -- -- 54
2019-11-15 11:00:00 8.3 6 Oeste 30 Oeste 0 -- -- 55
2019-11-15 10:00:00 6.9 9 Oeste 21 Noroeste 0 -- -- 52
2019-11-15 09:00:00 5.8 5 Sudoeste 30 Nordeste 0 -- -- 58
2019-11-15 08:00:00 5.6 14 Nordeste 33 Nordeste 0 -- -- 60
2019-11-15 07:00:00 5.1 8 Nordeste 26 Norte 0 -- -- 68
2019-11-15 06:00:00 5.8 6 Este 39 Oeste 0 -- -- 67
2019-11-15 05:00:00 6.3 12 Noroeste 36 Noroeste 0 -- -- 63
2019-11-15 04:00:00 6.6 17 Noroeste 51 Noroeste 0 -- -- 62
2019-11-15 03:00:00 7.3 17 Noroeste 44 Noroeste 0 -- -- 68
2019-11-15 02:00:00 7.5 16 Noroeste 44 Noroeste 0 -- -- 69
2019-11-15 01:00:00 7.5 13 Noroeste 29 Oeste 0 -- -- 69
2019-11-15 00:00:00 7.8 14 Noroeste 34 Noroeste 0 -- -- 71
2019-11-14 23:00:00 7.8 12 Noroeste 30 Noroeste 0 -- -- 71
2019-11-14 22:00:00 7.7 8 Noroeste 23 Noroeste 0 -- -- 71
2019-11-14 21:00:00 7.8 5 Sudoeste 25 Nordeste 0 -- -- 71
2019-11-14 20:00:00 8.4 15 Noroeste 37 Noroeste 0 -- -- 68
2019-11-14 19:00:00 8.5 19 Noroeste 51 Noroeste 0 -- -- 68
2019-11-14 18:00:00 8.4 13 Noroeste 41 Oeste 0.2 -- -- 67
2019-11-14 17:00:00 8.8 14 Noroeste 34 Noroeste 0 -- -- 70
2019-11-14 16:00:00 9.3 14 Noroeste 30 Noroeste 0.8 -- -- 77
2019-11-14 15:00:00 9.7 15 Noroeste 44 Norte 0.6 -- -- 82
2019-11-14 14:00:00 10.2 10 Noroeste 44 Oeste 0.4 -- -- 86
2019-11-14 13:00:00 10.1 17 Oeste 42 Oeste 0.4 -- -- 86
2019-11-14 12:00:00 10.1 19 Oeste 54 Oeste 0 -- -- 85
2019-11-14 11:00:00 10 5 Oeste 23 Oeste 0 -- -- 79
2019-11-14 10:00:00 10.6 8 Oeste 34 Norte 0 -- -- 76
2019-11-14 09:00:00 10 8 Noroeste 28 Noroeste 0 -- -- 72
2019-11-14 08:00:00 9.4 6 Norte 26 Norte 0 -- -- 72
2019-11-14 07:00:00 9.8 18 Noroeste 33 Noroeste 0 -- -- 70
2019-11-14 06:00:00 10.2 12 Noroeste 31 Oeste 0 -- -- 80
2019-11-14 05:00:00 11.2 17 Oeste 30 Oeste 0 -- -- 80
2019-11-14 04:00:00 11.7 9 Noroeste 35 Noroeste 0 -- -- 79
2019-11-14 03:00:00 12.1 18 Noroeste 36 Oeste 0 -- -- 77
2019-11-14 02:00:00 11 7 Sudoeste 18 Sudoeste 0 -- -- 83
2019-11-14 01:00:00 11.6 5 Noroeste 17 Nordeste 0 -- -- 80
2019-11-14 00:00:00 12.1 5 Noroeste 22 Noroeste 0 -- -- 77
2019-11-13 23:00:00 12 6 Norte 20 Noroeste 0 -- -- 79
2019-11-13 22:00:00 12.4 4 Norte 17 Norte 0 -- -- 77
2019-11-13 21:00:00 12.8 8 Norte 24 Norte 0 -- -- 75
2019-11-13 20:00:00 13.2 11 Noroeste 22 Norte 0 -- -- 74
2019-11-13 19:00:00 13.2 8 Norte 19 Noroeste 0 -- -- 73
2019-11-13 18:00:00 14.4 7 Oeste 20 Noroeste 0 -- -- 73
2019-11-13 17:00:00 14.8 9 Oeste 20 Oeste 0 -- -- 75
2019-11-13 16:00:00 14.3 11 Oeste 26 Oeste 0 -- -- 81
2019-11-13 15:00:00 13.7 13 Oeste 26 Oeste 0.2 -- -- 86
2019-11-13 14:00:00 13.2 9 Oeste 22 Oeste 0 -- -- 89
2019-11-13 13:00:00 13.1 8 Oeste 17 Noroeste 0 -- -- 89
2019-11-13 12:00:00 13.2 10 Oeste 29 Oeste 0 -- -- 84
2019-11-13 11:00:00 12.6 12 Oeste 28 Oeste 0 -- -- 82
2019-11-13 10:00:00 12.1 12 Oeste 35 Oeste 0 -- -- 81
2019-11-13 09:00:00 12 18 Oeste 33 Oeste 0 -- -- 80
2019-11-13 08:00:00 11.8 10 Noroeste 28 Noroeste 0 -- -- 77
2019-11-13 07:00:00 11.4 6 Noroeste 26 Noroeste 0 -- -- 81
2019-11-13 06:00:00 11.4 9 Noroeste 26 Noroeste 0 -- -- 80
2019-11-13 05:00:00 11.5 12 Oeste 30 Noroeste 0 -- -- 80
2019-11-13 04:00:00 11.6 15 Noroeste 37 Noroeste 0 -- -- 76
2019-11-13 03:00:00 11.4 9 Noroeste 22 Norte 0 -- -- 75
2019-11-13 02:00:00 10.7 5 Noroeste 21 Oeste 0 -- -- 77
2019-11-13 01:00:00 9.8 4 Sur 11 Sudoeste 0 -- -- 71
2019-11-13 00:00:00 10.2 4 Norte 13 Este 0 -- -- 68
2019-11-12 23:00:00 9.7 5 Sudeste 10 Sudeste 0 -- -- 72
2019-11-12 22:00:00 10 4 Sudeste 10 Sudeste 0 -- -- 70
2019-11-12 21:00:00 11.1 0 Calma 15 Oeste 0 -- -- 66
2019-11-12 20:00:00 11.3 4 Sur 11 Noroeste 0 -- -- 64
2019-11-12 19:00:00 12.3 3 Oeste 24 Nordeste 0 -- -- 59
2019-11-12 18:00:00 13.2 15 Nordeste 32 Nordeste 0 -- -- 58
2019-11-12 17:00:00 14.6 12 Nordeste 37 Nordeste 0 -- -- 57
2019-11-12 16:00:00 15.8 8 Nordeste 30 Nordeste 0 -- -- 57
2019-11-12 15:00:00 15.8 10 Nordeste 32 Nordeste 0 -- -- 57
2019-11-12 14:00:00 15.4 14 Nordeste 31 Nordeste 0 -- -- 62
2019-11-12 13:00:00 14.2 15 Nordeste 35 Norte 0 -- -- 67
2019-11-12 12:00:00 13.5 14 Norte 28 Norte 0 -- -- 68
2019-11-12 11:00:00 12.7 13 Nordeste 27 Nordeste 0 -- -- 73
2019-11-12 10:00:00 11.5 13 Nordeste 26 Norte 0 -- -- 79
2019-11-12 09:00:00 10.7 5 Nordeste 15 Nordeste 0 -- -- 82
2019-11-12 08:00:00 10.7 7 Nordeste 14 Norte 0 -- -- 83
2019-11-12 07:00:00 11.1 4 Nordeste 18 Norte 0 -- -- 83
2019-11-12 06:00:00 11.2 6 Norte 20 Norte 0 -- -- 83
2019-11-12 05:00:00 11.6 5 Nordeste 17 Nordeste 0 -- -- 84
2019-11-12 04:00:00 11.4 0 Calma 12 Sudeste 0 -- -- 88
2019-11-12 03:00:00 11.6 2 Noroeste 5 Noroeste 0 -- -- 89
2019-11-12 02:00:00 11.5 0 Calma 6 Sur 0 -- -- 90
2019-11-12 01:00:00 11.5 0 Calma 5 Este 0 -- -- 90
2019-11-12 00:00:00 11.4 2 Nordeste 5 Noroeste 0 -- -- 90
2019-11-11 23:00:00 11.8 0 Calma 7 Nordeste 0 -- -- 90
2019-11-11 22:00:00 12.1 0 Calma 4 Norte 0 -- -- 92
2019-11-11 21:00:00 11.9 2 Norte 5 Norte 0 -- -- 92
2019-11-11 20:00:00 11.9 3 Sur 10 Norte 0 -- -- 91
2019-11-11 19:00:00 12.3 2 Sudoeste 18 Sudeste 0.2 -- -- 90
2019-11-11 18:00:00 13.1 2 Sur 10 Noroeste 0.2 -- -- 86
2019-11-11 17:00:00 13.7 6 Oeste 15 Noroeste 0 -- -- 77
2019-11-11 16:00:00 14.1 3 Norte 28 Nordeste 0 -- -- 76
2019-11-11 15:00:00 13.7 11 Nordeste 28 Norte 0 -- -- 77
2019-11-11 14:00:00 14.4 9 Nordeste 22 Nordeste 0 -- -- 74
2019-11-11 13:00:00 14 9 Nordeste 35 Nordeste 0 -- -- 75
2019-11-11 12:00:00 13.4 6 Noroeste 22 Oeste 0 -- -- 75
2019-11-11 11:00:00 11.3 5 Oeste 19 Nordeste 0 -- -- 80
2019-11-11 10:00:00 10.1 8 Nordeste 21 Nordeste 0 -- -- 83
2019-11-11 09:00:00 9 4 Noroeste 10 Sudoeste 0 -- -- 89
2019-11-11 08:00:00 8.7 3 Oeste 14 Nordeste 0 -- -- 88
2019-11-11 07:00:00 8.4 2 Noroeste 13 Norte 0.4 -- -- 89
2019-11-11 06:00:00 8.6 3 Nordeste 20 Este 0.2 -- -- 87
2019-11-11 05:00:00 8.6 6 Nordeste 24 Nordeste 0 -- -- 86
2019-11-11 04:00:00 8.7 6 Nordeste 24 Nordeste 0.2 -- -- 85
2019-11-11 03:00:00 9 14 Nordeste 33 Nordeste 0 -- -- 81
2019-11-11 02:00:00 9.3 6 Nordeste 33 Oeste 0 -- -- 74
2019-11-11 01:00:00 9.2 9 Oeste 27 Oeste 0 -- -- 74
2019-11-11 00:00:00 9.5 6 Noroeste 31 Oeste 0 -- -- 72
2019-11-10 23:00:00 9.5 9 Norte 31 Norte 0 -- -- 69
2019-11-10 22:00:00 9.5 8 Nordeste 26 Noroeste 0 -- -- 66
2019-11-10 21:00:00 9.6 5 Nordeste 30 Nordeste 0 -- -- 63
2019-11-10 20:00:00 9.7 6 Oeste 23 Oeste 0 -- -- 63
2019-11-10 19:00:00 10.1 5 Noroeste 21 Nordeste 0 -- -- 60
2019-11-10 18:00:00 11.4 6 Norte 41 Noroeste 0 -- -- 52
2019-11-10 17:00:00 12.4 16 Noroeste 50 Oeste 0 -- -- 47
2019-11-10 16:00:00 12.8 17 Noroeste 42 Noroeste 0 -- -- 48
2019-11-10 15:00:00 13 24 Noroeste 46 Noroeste 0 -- -- 51
2019-11-10 14:00:00 12.7 20 Nordeste 52 Nordeste 0 -- -- 55
2019-11-10 13:00:00 11.2 25 Nordeste 55 Nordeste 0 -- -- 57
2019-11-10 12:00:00 10.2 31 Nordeste 63 Norte 0 -- -- 63
2019-11-10 11:00:00 9.5 34 Norte 67 Nordeste 0 -- -- 70
2019-11-10 10:00:00 9.4 33 Norte 67 Nordeste 0 -- -- 71
2019-11-10 09:00:00 8.9 40 Norte 72 Norte 0 -- -- 72
2019-11-10 08:00:00 9.1 37 Norte 65 Nordeste 0.2 -- -- 71
2019-11-10 07:00:00 9.7 37 Norte 62 Norte 0 -- -- 73
2019-11-10 06:00:00 9.8 20 Nordeste 49 Nordeste 0 -- -- 80
2019-11-10 05:00:00 10.5 5 Noroeste 18 Nordeste 0 -- -- 71
2019-11-10 04:00:00 11.2 11 Noroeste 33 Noroeste 0 -- -- 74
2019-11-10 03:00:00 10.9 2 Nordeste 4 Este 0 -- -- 90
2019-11-10 02:00:00 10.8 0 Calma 14 Norte 0.2 -- -- 88
2019-11-10 01:00:00 10.5 7 Oeste 27 Oeste 0 -- -- 86
2019-11-10 00:00:00 10.8 9 Oeste 24 Noroeste 0 -- -- 78